Alba, MO

6:38 PM CST on February 09, 2016 (GMT -0600)
Sunshine Acres | | Change Station
CLOSE
Current Station
Personal Weather Station
Location: Carterville, MO
Elevation: 994 ft
Nearby Weather Stations

Elev 994 ft 37.16 °N, 94.44 °W | Updated 7 minutes ago

Clear
Clear
29.5 °F
Feels Like 23 °F
N
5.8
Wind Variable Wind from WNW

Today
High -- | Low -- °F
--% Chance of Precip.
Yesterday
High -- | Low -- °F
Precip. -- in
Pressure 30.26 in
Visibility 10.0 miles
Clouds Clear
Windchill 23 °F
Dew Point 9 °F
Humidity 42%
Rainfall 0.00 in
Snow Depth Not available.
7:13 AM 5:50 PM
Waxing Crescent, 3% visible
METAR KJLN 092353Z 32010KT 10SM CLR M01/M14 A3023 RMK AO2 SLP246 T10061139 10033 21006 53016
Pressure 30.26 in
Visibility 10.0 miles
Clouds Clear
Windchill 23 °F
Dew Point 9 °F
Humidity 42%
Rainfall 0.00 in
Snow Depth Not available.
7:13 AM 5:50 PM
Waxing Crescent, 3% visible
METAR KJLN 092353Z 32010KT 10SM CLR M01/M14 A3023 RMK AO2 SLP246 T10061139 10033 21006 53016

10-Day Weather Forecast

Almanac

Astronomy

Feb. 09, 2016 Rise Set
Actual Time
Civil Twilight
Nautical Twilight
Astronomical Twilight
Moon
Length of Visible Light
Length of Day
Tomorrow will be .
, % of the Moon is Illuminated

Today's Extremes

State Highs State Lows

Community

WunderPhotos

Upload Photos

1,891,751 photos uploaded!

WunderBlog® & News

Nearby

Air Quality

  Air Quality AQ Index Pollutant
Not available.

Snow Depth

Station Depth Elevation

Earthquake Activity

City Distance Mag. Time & Date
Minimum magnitude displayed is 2.5.

Coastal Water Temperatures

Place Temperature

Stations

Nearby Weather Stations

Station Location Temp. Windchill Dew Point Humidity Wind Precip. Elev Updated Type
                   

Watches & Warnings

There are currently no watches in effect.